createdAt,value
2018-06-13T00:01:02.135Z,93.30
2018-06-13T00:03:31.078Z,93.20
2018-06-13T00:06:00.076Z,93.30
2018-06-13T00:08:29.173Z,93.80
2018-06-13T00:13:26.746Z,93.50
2018-06-13T00:15:55.713Z,93.50
2018-06-13T00:18:24.623Z,93.50
2018-06-13T00:20:53.563Z,93.60
2018-06-13T00:23:22.534Z,93.60
2018-06-13T00:25:51.504Z,93.80
2018-06-13T00:28:20.416Z,93.80
2018-06-13T00:30:49.390Z,93.90
2018-06-13T00:33:18.373Z,93.90
2018-06-13T00:38:15.907Z,94.00
2018-06-13T00:40:44.948Z,94.20
2018-06-13T00:43:13.987Z,94.10
2018-06-13T00:45:42.940Z,94.40
2018-06-13T00:48:11.929Z,94.40
2018-06-13T00:50:40.886Z,94.40
2018-06-13T00:53:09.819Z,94.50
2018-06-13T00:55:50.284Z,94.70
2018-06-13T00:58:19.237Z,94.80
2018-06-13T01:00:48.151Z,94.70
2018-06-13T01:03:17.124Z,95.00
2018-06-13T01:05:46.100Z,95.00
2018-06-13T01:08:15.094Z,95.00
2018-06-13T01:10:44.079Z,95.00
2018-06-13T01:13:13.021Z,94.90
2018-06-13T01:15:41.977Z,95.00
2018-06-13T01:18:10.876Z,95.20
2018-06-13T01:20:39.829Z,95.20
2018-06-13T01:23:08.775Z,95.10
2018-06-13T01:25:37.725Z,95.00
2018-06-13T01:28:06.674Z,95.10
2018-06-13T01:30:35.580Z,95.20
2018-06-13T01:33:04.842Z,95.20
2018-06-13T01:35:33.802Z,95.40
2018-06-13T01:38:02.748Z,95.30
2018-06-13T01:40:31.726Z,95.30
2018-06-13T01:43:00.696Z,95.40
2018-06-13T01:45:29.637Z,95.50
2018-06-13T01:47:58.587Z,95.60
2018-06-13T01:50:27.503Z,95.60
2018-06-13T01:52:56.457Z,95.50
2018-06-13T01:55:25.501Z,95.60
2018-06-13T01:57:54.437Z,95.50
2018-06-13T02:00:23.593Z,95.60
2018-06-13T02:02:52.509Z,95.60
2018-06-13T02:05:21.437Z,95.70
2018-06-13T02:07:50.389Z,95.80
2018-06-13T02:10:19.393Z,95.70
2018-06-13T02:12:48.288Z,95.80
2018-06-13T02:15:17.240Z,95.80
2018-06-13T02:17:46.204Z,95.80
2018-06-13T02:20:15.192Z,95.70
2018-06-13T02:22:44.153Z,95.70
2018-06-13T02:25:13.341Z,95.80
2018-06-13T02:30:10.826Z,96.00
2018-06-13T02:32:41.426Z,96.00
2018-06-13T02:35:10.497Z,95.90
2018-06-13T02:37:39.471Z,95.90
2018-06-13T02:40:08.457Z,96.10
2018-06-13T02:42:37.381Z,96.00
2018-06-13T02:45:06.313Z,96.00
2018-06-13T02:47:35.269Z,95.80
2018-06-13T02:50:04.281Z,96.00
2018-06-13T02:52:33.259Z,95.90
2018-06-13T02:55:02.214Z,95.80
2018-06-13T02:57:31.246Z,95.80
2018-06-13T03:00:00.184Z,96.30
2018-06-13T03:02:29.396Z,95.80
2018-06-13T03:04:58.320Z,95.60
2018-06-13T03:07:27.274Z,95.60
2018-06-13T03:09:56.186Z,95.80
2018-06-13T03:12:25.163Z,95.80
2018-06-13T03:14:54.080Z,95.70
2018-06-13T03:17:23.047Z,96.00
2018-06-13T03:19:52.011Z,95.70
2018-06-13T03:22:20.930Z,95.80
2018-06-13T03:24:49.841Z,95.80
2018-06-13T03:29:47.398Z,95.90
2018-06-13T03:32:16.361Z,95.90
2018-06-13T03:34:45.345Z,95.70
2018-06-13T03:37:14.388Z,96.00
2018-06-13T03:39:43.355Z,96.00
2018-06-13T03:42:12.308Z,96.50
2018-06-13T03:44:41.228Z,96.30
2018-06-13T03:47:10.160Z,96.30
2018-06-13T03:49:39.077Z,96.20
2018-06-13T03:52:08.017Z,96.50
2018-06-13T03:54:36.948Z,96.40
2018-06-13T03:57:06.115Z,96.30
2018-06-13T04:04:32.275Z,96.30
2018-06-13T04:07:01.225Z,96.40
2018-06-13T04:09:30.467Z,96.90
2018-06-13T04:11:59.396Z,96.20
2018-06-13T04:14:28.371Z,95.90
2018-06-13T04:16:57.309Z,95.80
2018-06-13T04:19:26.320Z,96.30
2018-06-13T04:21:55.246Z,95.70
2018-06-13T04:24:24.411Z,95.70
2018-06-13T04:29:21.946Z,95.90
2018-06-13T04:31:50.933Z,95.60
2018-06-13T04:34:19.872Z,95.70
2018-06-13T04:36:48.801Z,95.70
2018-06-13T04:39:17.752Z,95.40
2018-06-13T04:41:46.840Z,95.50
2018-06-13T04:44:15.804Z,95.80
2018-06-13T04:46:44.732Z,95.40
2018-06-13T04:49:13.722Z,95.40
2018-06-13T04:51:42.677Z,95.10
2018-06-13T04:54:11.653Z,95.30
2018-06-13T04:56:40.595Z,95.10
2018-06-13T04:59:09.540Z,95.40
2018-06-13T05:01:38.472Z,95.00
2018-06-13T05:04:07.364Z,94.80
2018-06-13T05:06:36.280Z,94.90
2018-06-13T05:09:07.598Z,94.90
2018-06-13T05:11:36.563Z,95.10
2018-06-13T05:16:34.193Z,94.70
2018-06-13T05:19:03.135Z,94.20
2018-06-13T05:21:32.100Z,94.00
2018-06-13T05:24:01.074Z,94.60
2018-06-13T05:26:30.032Z,94.30
2018-06-13T05:28:59.053Z,94.20
2018-06-13T05:31:28.094Z,94.00
2018-06-13T05:33:57.069Z,93.90
2018-06-13T05:36:26.022Z,93.90
2018-06-13T05:38:54.977Z,93.90
2018-06-13T05:41:23.917Z,93.20
2018-06-13T05:43:53.079Z,93.20
2018-06-13T05:46:21.955Z,92.90
2018-06-13T05:48:50.890Z,92.80
2018-06-13T05:51:19.830Z,92.40
2018-06-13T05:53:48.798Z,92.60
2018-06-13T05:56:17.736Z,92.30
2018-06-13T05:58:46.665Z,92.20
2018-06-13T06:01:15.627Z,91.70
2018-06-13T06:03:44.694Z,91.00
2018-06-13T06:06:13.701Z,91.20
2018-06-13T06:08:42.661Z,91.30
2018-06-13T06:11:11.624Z,91.20
2018-06-13T06:13:40.550Z,91.20
2018-06-13T06:16:09.497Z,90.50
2018-06-13T06:18:38.493Z,90.50
2018-06-13T06:21:07.465Z,90.10
2018-06-13T06:23:36.454Z,90.30
2018-06-13T06:28:34.278Z,89.80
2018-06-13T06:31:03.227Z,88.90
2018-06-13T06:33:32.159Z,90.60
2018-06-13T06:36:01.113Z,89.60
2018-06-13T06:38:30.981Z,90.00
2018-06-13T06:40:59.967Z,88.80
2018-06-13T06:43:28.922Z,90.00
2018-06-13T06:45:57.866Z,88.40
2018-06-13T06:48:26.814Z,88.40
2018-06-13T06:50:55.740Z,87.20
2018-06-13T06:53:24.673Z,87.60
2018-06-13T06:55:53.628Z,88.30
2018-06-13T06:58:22.538Z,86.60
2018-06-13T07:00:51.515Z,86.80
2018-06-13T07:03:20.422Z,85.50
2018-06-13T07:05:49.446Z,85.70
2018-06-13T07:08:18.385Z,84.40
2018-06-13T07:10:47.350Z,86.30
2018-06-13T07:15:44.944Z,84.40
2018-06-13T07:18:13.996Z,85.00
2018-06-13T07:20:43.200Z,83.80
2018-06-13T07:23:12.147Z,84.30
2018-06-13T07:25:41.102Z,85.50
2018-06-13T07:28:10.065Z,85.00
2018-06-13T07:30:39.082Z,84.20
2018-06-13T07:33:08.057Z,84.70
2018-06-13T07:35:36.998Z,85.00
2018-06-13T07:38:05.936Z,83.80
2018-06-13T07:43:03.446Z,86.00
2018-06-13T07:45:32.375Z,86.20
2018-06-13T07:48:01.321Z,86.80
2018-06-13T07:50:30.340Z,86.50
2018-06-13T07:52:59.273Z,85.10
2018-06-13T07:57:56.846Z,84.70
2018-06-13T08:00:25.809Z,83.80
2018-06-13T08:05:23.458Z,84.30
2018-06-13T08:07:52.360Z,84.80
2018-06-13T08:10:21.342Z,84.70
2018-06-13T08:12:50.300Z,83.80
2018-06-13T08:15:19.237Z,81.90
2018-06-13T08:17:48.827Z,82.40
2018-06-13T08:20:17.811Z,82.20
2018-06-13T08:22:46.748Z,82.80
2018-06-13T08:25:16.113Z,82.40
2018-06-13T08:27:48.763Z,82.40
2018-06-13T08:30:17.700Z,81.60
2018-06-13T08:32:47.481Z,81.60
2018-06-13T08:35:16.410Z,81.80
2018-06-13T08:37:45.366Z,82.80
2018-06-13T08:40:14.289Z,80.60
2018-06-13T08:42:43.238Z,81.90
2018-06-13T08:45:12.167Z,80.60
2018-06-13T08:47:41.161Z,81.30
2018-06-13T08:50:10.116Z,81.10
2018-06-13T08:52:39.041Z,80.70
2018-06-13T08:55:07.986Z,80.40
2018-06-13T08:57:37.008Z,79.80
2018-06-13T09:00:06.155Z,79.00
2018-06-13T09:02:35.108Z,76.60
2018-06-13T09:07:32.672Z,72.50
2018-06-13T09:10:01.708Z,73.70
2018-06-13T09:12:31.046Z,74.60
2018-06-13T09:15:00.495Z,76.30
2018-06-13T09:17:30.514Z,78.00
2018-06-13T09:20:00.591Z,75.80
2018-06-13T09:22:30.683Z,77.80
2018-06-13T09:25:00.045Z,79.10
2018-06-13T09:27:29.005Z,77.40
2018-06-13T09:29:58.009Z,78.20
2018-06-13T09:34:55.926Z,80.50
2018-06-13T09:37:24.916Z,80.20
2018-06-13T09:39:54.031Z,80.00
2018-06-13T09:42:22.949Z,79.90
2018-06-13T09:44:51.886Z,80.40
2018-06-13T09:47:23.459Z,81.00
2018-06-13T09:49:49.898Z,81.00
2018-06-13T09:52:18.831Z,82.60
2018-06-13T09:54:47.828Z,83.60
2018-06-13T09:57:16.763Z,82.90
2018-06-13T09:59:51.483Z,82.30
2018-06-13T10:02:20.410Z,82.40
2018-06-13T10:04:49.389Z,83.20
2018-06-13T10:07:18.337Z,84.10
2018-06-13T10:09:47.264Z,83.40
2018-06-13T10:12:16.273Z,83.30
2018-06-13T10:14:45.241Z,83.60
2018-06-13T10:17:14.182Z,81.30
2018-06-13T10:24:40.297Z,74.80
2018-06-13T10:27:14.737Z,74.60
2018-06-13T10:29:43.869Z,76.00
2018-06-13T10:34:41.467Z,73.40
2018-06-13T10:37:10.385Z,73.20
2018-06-13T10:39:39.349Z,68.50
2018-06-13T10:42:08.278Z,67.00
2018-06-13T10:44:37.222Z,65.00
2018-06-13T10:47:06.201Z,63.80
2018-06-13T10:49:35.489Z,65.40
2018-06-13T10:52:05.421Z,66.50
2018-06-13T10:54:34.398Z,68.90
2018-06-13T10:57:03.344Z,69.60
2018-06-13T10:59:32.277Z,71.30
2018-06-13T11:02:01.227Z,73.00
2018-06-13T11:04:30.173Z,71.80
2018-06-13T11:06:59.109Z,73.20
2018-06-13T11:09:28.096Z,70.60
2018-06-13T11:11:57.021Z,67.20
2018-06-13T11:14:25.989Z,68.50
2018-06-13T11:16:54.929Z,67.20
2018-06-13T11:19:23.865Z,65.60
2018-06-13T11:21:52.786Z,63.70
2018-06-13T11:24:21.753Z,62.60
2018-06-13T11:26:50.692Z,60.80
2018-06-13T11:29:19.614Z,65.30
2018-06-13T11:31:48.801Z,66.00
2018-06-13T11:34:17.771Z,64.20
2018-06-13T11:36:46.730Z,62.70
2018-06-13T11:39:15.681Z,61.00
2018-06-13T11:41:46.569Z,61.30
2018-06-13T11:44:16.038Z,61.20
2018-06-13T11:46:45.054Z,61.20
2018-06-13T11:49:14.003Z,63.60
2018-06-13T11:51:44.015Z,66.00
2018-06-13T11:54:12.982Z,63.30
2018-06-13T11:56:42.233Z,63.50
2018-06-13T11:59:11.197Z,63.80
2018-06-13T12:01:40.334Z,65.00
2018-06-13T12:04:09.304Z,63.80
2018-06-13T12:06:38.603Z,64.40
2018-06-13T12:09:08.434Z,66.10
2018-06-13T12:11:38.634Z,66.80
2018-06-13T12:14:07.634Z,67.30
2018-06-13T12:16:36.616Z,66.70
2018-06-13T12:19:05.559Z,68.00
2018-06-13T12:21:34.558Z,65.90
2018-06-13T12:24:03.537Z,67.20
2018-06-13T12:26:32.462Z,66.10
2018-06-13T12:29:01.385Z,66.80
2018-06-13T12:33:59.165Z,68.60
2018-06-13T12:36:28.105Z,63.00
2018-06-13T12:38:57.051Z,63.60
2018-06-13T12:43:55.036Z,58.90
2018-06-13T12:46:23.961Z,59.40
2018-06-13T12:48:53.366Z,60.00
2018-06-13T12:51:22.311Z,59.20
2018-06-13T12:53:52.084Z,59.70
2018-06-13T12:56:21.050Z,58.10
2018-06-13T12:58:49.982Z,56.70
2018-06-13T13:01:18.966Z,58.30
2018-06-13T13:03:48.138Z,55.40
2018-06-13T13:06:17.398Z,56.10
2018-06-13T13:08:46.340Z,57.50
2018-06-13T13:11:15.408Z,57.50
2018-06-13T13:13:44.258Z,54.60
2018-06-13T13:16:13.718Z,55.90
2018-06-13T13:18:42.690Z,58.00
2018-06-13T13:21:12.095Z,55.70
2018-06-13T13:23:41.134Z,55.50
2018-06-13T13:26:10.054Z,54.90
2018-06-13T13:28:39.013Z,52.20
2018-06-13T13:31:07.929Z,52.60
2018-06-13T13:33:36.841Z,52.60
2018-06-13T13:36:06.129Z,53.40
2018-06-13T13:38:35.037Z,54.90
2018-06-13T13:41:03.985Z,55.00
2018-06-13T13:43:32.914Z,55.10
2018-06-13T13:46:01.877Z,55.40
2018-06-13T13:50:59.549Z,53.00
2018-06-13T13:53:28.854Z,53.90
2018-06-13T13:55:57.815Z,49.70
2018-06-13T13:58:26.750Z,48.30
2018-06-13T14:00:55.701Z,49.50
2018-06-13T14:05:53.241Z,49.80
2018-06-13T14:08:22.245Z,50.50
2018-06-13T14:10:51.182Z,50.60
2018-06-13T14:13:20.156Z,51.50
2018-06-13T14:18:17.703Z,52.60
2018-06-13T14:20:46.631Z,51.40
2018-06-13T14:23:15.974Z,51.70
2018-06-13T14:25:44.871Z,51.90
2018-06-13T14:28:13.915Z,51.90
2018-06-13T14:30:43.118Z,51.70
2018-06-13T14:33:12.053Z,52.40
2018-06-13T14:35:41.857Z,50.00
2018-06-13T14:38:11.190Z,50.20
2018-06-13T14:40:40.114Z,49.40
2018-06-13T14:43:09.053Z,48.20
2018-06-13T14:45:38.249Z,46.60
2018-06-13T14:48:07.175Z,45.40
2018-06-13T14:50:36.177Z,47.90
2018-06-13T14:53:05.078Z,46.40
2018-06-13T14:55:40.584Z,45.50
2018-06-13T14:58:09.844Z,46.20
2018-06-13T15:00:38.874Z,47.00
2018-06-13T15:05:36.337Z,47.60
2018-06-13T15:08:05.499Z,48.50
2018-06-13T15:10:34.532Z,49.30
2018-06-13T15:13:03.552Z,48.40
2018-06-13T15:15:32.393Z,48.40
2018-06-13T15:18:01.318Z,49.40
2018-06-13T15:20:30.341Z,50.50
2018-06-13T15:22:59.378Z,51.30
2018-06-13T15:25:28.307Z,51.20
2018-06-13T15:27:57.506Z,51.00
2018-06-13T15:30:26.538Z,51.00
2018-06-13T15:32:55.492Z,50.50
2018-06-13T15:35:24.459Z,49.70
2018-06-13T15:40:22.181Z,49.40
2018-06-13T15:42:51.134Z,51.10
2018-06-13T15:50:17.240Z,51.00
2018-06-13T15:52:46.202Z,50.60
2018-06-13T15:55:15.132Z,51.40
2018-06-13T15:57:44.122Z,50.70
2018-06-13T16:00:13.041Z,50.30
2018-06-13T16:02:41.962Z,51.00
2018-06-13T16:05:10.915Z,47.90
2018-06-13T16:07:39.842Z,47.50
2018-06-13T16:10:08.784Z,47.50
2018-06-13T16:12:38.219Z,47.50
2018-06-13T16:15:07.178Z,46.70
2018-06-13T16:17:36.125Z,48.10
2018-06-13T16:20:05.616Z,48.40
2018-06-13T16:22:34.618Z,48.20
2018-06-13T16:25:03.709Z,47.60
2018-06-13T16:27:32.784Z,47.00
2018-06-13T16:30:01.802Z,46.70
2018-06-13T16:32:30.926Z,47.30
2018-06-13T16:34:59.846Z,47.90
2018-06-13T16:39:57.350Z,49.20
2018-06-13T16:42:26.291Z,48.30
2018-06-13T16:44:55.224Z,49.00
2018-06-13T16:47:24.149Z,47.30
2018-06-13T16:49:53.070Z,47.80
2018-06-13T16:52:33.564Z,48.10
2018-06-13T16:55:24.176Z,48.30
2018-06-13T16:57:53.271Z,48.60
2018-06-13T17:00:22.760Z,49.00
2018-06-13T17:02:52.148Z,49.10
2018-06-13T17:05:21.100Z,49.40
2018-06-13T17:07:50.098Z,49.40
2018-06-13T17:10:19.026Z,48.90
2018-06-13T17:12:48.037Z,48.80
2018-06-13T17:15:16.965Z,49.50
2018-06-13T17:20:14.518Z,49.60
2018-06-13T17:22:43.526Z,49.30
2018-06-13T17:25:12.520Z,49.60
2018-06-13T17:27:41.484Z,50.00
2018-06-13T17:30:10.734Z,50.20
2018-06-13T17:32:40.230Z,50.60
2018-06-13T17:35:09.379Z,50.30
2018-06-13T17:37:38.544Z,50.20
2018-06-13T17:40:07.463Z,50.50
2018-06-13T17:42:36.543Z,50.90
2018-06-13T17:45:05.948Z,51.10
2018-06-13T17:52:32.158Z,51.00
2018-06-13T17:55:01.083Z,51.50
2018-06-13T17:57:30.043Z,52.10
2018-06-13T17:59:59.892Z,52.10
2018-06-13T18:02:29.249Z,52.10
2018-06-13T18:04:58.182Z,52.40
2018-06-13T18:07:27.176Z,52.90
2018-06-13T18:09:56.094Z,53.50
2018-06-13T18:12:25.052Z,54.10
2018-06-13T18:14:54.315Z,53.90
2018-06-13T18:19:51.819Z,53.90
2018-06-13T18:22:20.762Z,54.60
2018-06-13T18:24:49.715Z,53.90
2018-06-13T18:27:18.822Z,54.10
2018-06-13T18:29:47.727Z,53.30
2018-06-13T18:34:45.315Z,52.10
2018-06-13T18:37:15.253Z,51.60
2018-06-13T18:39:44.210Z,51.80
2018-06-13T18:42:13.148Z,52.00
2018-06-13T18:44:42.166Z,52.10
2018-06-13T18:47:11.122Z,52.00
2018-06-13T18:49:40.090Z,52.70
2018-06-13T18:52:09.037Z,54.50
2018-06-13T18:54:37.982Z,55.00
2018-06-13T18:57:06.917Z,55.10
2018-06-13T18:59:35.869Z,56.20
2018-06-13T19:02:04.815Z,56.20
2018-06-13T19:04:33.759Z,62.30
2018-06-13T19:07:02.705Z,63.70
2018-06-13T19:09:31.639Z,66.60
2018-06-13T19:12:00.606Z,68.20
2018-06-13T19:14:29.527Z,70.80
2018-06-13T19:16:58.472Z,71.70
2018-06-13T19:21:56.309Z,75.30
2018-06-13T19:24:25.291Z,76.70
2018-06-13T19:26:54.168Z,78.00
2018-06-13T19:29:23.156Z,79.20
2018-06-13T19:31:52.089Z,78.80
2018-06-13T19:34:21.027Z,79.60
2018-06-13T19:36:50.008Z,80.90
2018-06-13T19:39:19.010Z,82.20
2018-06-13T19:41:48.099Z,82.70
2018-06-13T19:44:17.049Z,83.60
2018-06-13T19:46:46.286Z,84.50
2018-06-13T19:49:15.193Z,85.10
2018-06-13T19:51:44.172Z,85.80
2018-06-13T19:54:18.562Z,85.50
2018-06-13T19:56:47.513Z,86.70
2018-06-13T19:59:16.462Z,87.40
2018-06-13T20:01:45.386Z,87.70
2018-06-13T20:04:19.813Z,88.40
2018-06-13T20:06:48.747Z,89.70
2018-06-13T20:09:17.737Z,88.90
2018-06-13T20:11:46.668Z,89.50
2018-06-13T20:14:21.170Z,90.20
2018-06-13T20:19:29.814Z,90.90
2018-06-13T20:21:59.658Z,91.20
2018-06-13T20:24:28.591Z,91.20
2018-06-13T20:27:03.036Z,91.60
2018-06-13T20:30:40.268Z,91.90
2018-06-13T20:33:09.280Z,92.20
2018-06-13T20:35:38.275Z,92.10
2018-06-13T20:38:07.209Z,92.30
2018-06-13T20:40:36.145Z,92.50
2018-06-13T20:43:05.086Z,93.00
2018-06-13T20:45:34.026Z,93.10
2018-06-13T20:48:02.952Z,93.20
2018-06-13T20:50:31.915Z,93.30
2018-06-13T20:53:01.082Z,93.50
2018-06-13T20:55:30.050Z,93.30
2018-06-13T20:57:59.022Z,93.30
2018-06-13T21:02:57.149Z,93.80
2018-06-13T21:05:26.122Z,94.20
2018-06-13T21:07:55.154Z,94.00
2018-06-13T21:10:24.148Z,94.00
2018-06-13T21:12:53.286Z,94.20
2018-06-13T21:15:22.238Z,94.30
2018-06-13T21:17:51.203Z,94.40
2018-06-13T21:20:20.475Z,94.40
2018-06-13T21:22:49.438Z,94.60
2018-06-13T21:25:18.381Z,94.60
2018-06-13T21:27:47.345Z,94.80
2018-06-13T21:30:16.314Z,94.90
2018-06-13T21:32:45.395Z,95.10
2018-06-13T21:35:14.339Z,95.10
2018-06-13T21:37:43.351Z,95.20
2018-06-13T21:40:12.311Z,95.30
2018-06-13T21:42:41.329Z,95.70
2018-06-13T21:45:10.286Z,95.70
2018-06-13T21:47:39.459Z,96.00
2018-06-13T21:50:08.462Z,96.40
2018-06-13T21:52:37.407Z,96.70
2018-06-13T21:55:06.390Z,96.60
2018-06-13T21:57:35.285Z,96.40
2018-06-13T22:00:06.893Z,96.70
2018-06-13T22:05:04.434Z,97.10
2018-06-13T22:07:33.390Z,97.10
2018-06-13T22:10:02.634Z,97.30
2018-06-13T22:12:31.578Z,97.40
2018-06-13T22:15:00.514Z,97.80
2018-06-13T22:17:30.462Z,97.90
2018-06-13T22:19:59.401Z,98.30
2018-06-13T22:22:28.404Z,98.20
2018-06-13T22:24:57.301Z,98.40
2018-06-13T22:27:26.233Z,98.30
2018-06-13T22:29:55.309Z,98.20
2018-06-13T22:32:24.292Z,98.50
2018-06-13T22:34:54.069Z,98.60
2018-06-13T22:43:17.957Z,99.30
2018-06-13T22:45:47.487Z,99.80
2018-06-13T22:50:45.512Z,99.90
2018-06-13T22:53:14.522Z,99.90
2018-06-13T22:55:43.512Z,99.90
2018-06-13T22:58:12.490Z,99.90
2018-06-13T23:01:04.711Z,99.90
2018-06-13T23:03:33.789Z,99.90
2018-06-13T23:06:04.507Z,99.90
2018-06-13T23:11:02.871Z,99.90
2018-06-13T23:13:31.787Z,99.90
2018-06-13T23:16:00.709Z,99.90
2018-06-13T23:18:30.088Z,99.90
2018-06-13T23:20:59.014Z,99.90
2018-06-13T23:23:28.000Z,99.90
2018-06-13T23:25:57.416Z,99.90
2018-06-13T23:28:26.396Z,99.90
2018-06-13T23:30:55.344Z,99.90
2018-06-13T23:33:24.312Z,99.90
2018-06-13T23:35:53.805Z,99.90
2018-06-13T23:38:22.757Z,99.90
2018-06-13T23:40:51.721Z,99.90
2018-06-13T23:43:20.643Z,99.90
2018-06-13T23:45:49.579Z,99.90
2018-06-13T23:48:18.472Z,99.90
2018-06-13T23:50:47.464Z,99.90
2018-06-13T23:53:16.426Z,99.90
2018-06-13T23:55:45.373Z,99.90
2018-06-13T23:58:14.352Z,99.90
